Midnight Coast — YJWE5 — position and weather

sailwx.info

Track history (hours):
 
Tides and Currents Weather Stations Pressure Air Temp Water Temp Dewpoint Dewpoint Depression Visibility Wind Speed Wind Dir Waves Ship Positions

Midnight Coast

Last reported at 2018-Feb-16 21:57 UTC. Time now 2018-Feb-24 06:16 UTC.
Position N 18°11' W 063°33'.

Length 53 m; draft 3 m.

Type: Cargo ship. MMSI: 577369000.

Date/timePositionNaut miles runAvg speedWind from/ knotsBaromVisibWave heightAir tempDewpointWater temp
2018-Feb-16 21:57N 18°11' W 063°33'4 8.7
2018-Feb-16 21:29N 18°10' W 063°29'5 8.7
2018-Feb-16 20:53N 18°09' W 063°24'4 8.8
2018-Feb-16 20:25N 18°08' W 063°19'4 8.8
2018-Feb-16 19:56N 18°07' W 063°15'6 9.0
2018-Feb-16 19:17N 18°06' W 063°09'3 9.2
2018-Feb-16 18:56N 18°05' W 063°06'1 1.1
2018-Feb-16 18:14N 18°05' W 063°05'0 0.0
2018-Feb-16 17:57N 18°05' W 063°05'0 0.0
2018-Feb-16 17:30N 18°05' W 063°05'0 0.0
2018-Feb-16 17:00N 18°05' W 063°05'2 3.3
2018-Feb-16 16:19N 18°06' W 063°07'3 8.4
2018-Feb-16 15:57N 18°08' W 063°10'3 6.2
2018-Feb-16 15:29N 18°11' W 063°09'1 0.4
2018-Feb-16 13:03N 18°12' W 063°09'1 8.6
2018-Feb-16 12:54N 18°12' W 063°10'3 8.8
2018-Feb-16 12:30N 18°12' W 063°14'4 8.7
2018-Feb-16 12:00N 18°12' W 063°18'  
Track history (hours):
 
Tides and Currents Weather Stations Pressure Air Temp Water Temp Dewpoint Dewpoint Depression Visibility Wind Speed Wind Dir Waves Ship Positions

Midnight Coast

Last reported at 2018-Feb-16 21:57 UTC. Time now 2018-Feb-24 06:16 UTC.
Position N 18°11' W 063°33'.

Length 53 m; draft 3 m.

Type: Cargo ship. MMSI: 577369000.

Date/timePositionNaut miles runAvg speedWind from/ knotsBaromVisibWave heightAir tempDewpointWater temp
2018-Feb-16 21:57N 18°11' W 063°33'4 8.7
2018-Feb-16 21:29N 18°10' W 063°29'5 8.7
2018-Feb-16 20:53N 18°09' W 063°24'4 8.8
2018-Feb-16 20:25N 18°08' W 063°19'4 8.8
2018-Feb-16 19:56N 18°07' W 063°15'6 9.0
2018-Feb-16 19:17N 18°06' W 063°09'3 9.2
2018-Feb-16 18:56N 18°05' W 063°06'1 1.1
2018-Feb-16 18:14N 18°05' W 063°05'0 0.0
2018-Feb-16 17:57N 18°05' W 063°05'0 0.0
2018-Feb-16 17:30N 18°05' W 063°05'0 0.0
2018-Feb-16 17:00N 18°05' W 063°05'2 3.3
2018-Feb-16 16:19N 18°06' W 063°07'3 8.4
2018-Feb-16 15:57N 18°08' W 063°10'3 6.2
2018-Feb-16 15:29N 18°11' W 063°09'1 0.4
2018-Feb-16 13:03N 18°12' W 063°09'1 8.6
2018-Feb-16 12:54N 18°12' W 063°10'3 8.8
2018-Feb-16 12:30N 18°12' W 063°14'4 8.7
2018-Feb-16 12:00N 18°12' W 063°18'  

Dump ship's entire track history